Cottonwood Creek, Nevada
Current Conditions -  °F | °C
As of 5:15 PM on Friday 31 Oct 2014 (Local Time) from KRTS Reporting Station
Overcast Overcast  
Wind Chill: 57°   Ceiling: 12000
Heat Index: 57°   Visibility: 10mi
Dew Point: 32°   Wind: 17mph
Humidity: 38%   Direction: 250°WSW
Pressure: 29.73"   Gusts: 32mph
Location:  39.8171°N, 119.63°W
Report Text: KRTS 010015Z AUTO 25015G28KT 10SM SCT100 OVC120 14/00 A2973 RMK AO2
Loading
Personal Weather Stations






























Interactive Weather Map
Tropical Storm Tracking
New forecast layout! Learn more

10-Day Weather Forecast

Advertisements
Track Severe Weather on mobile